Time;durP1;ratioP1;P1;durP2;ratioP2;P2;SDS_P1;SDS_P2;PMS_P1;PMS_P2;Temp;Humidity;BMP_temperature;BMP_pressure;BME280_temperature;BME280_humidity;BME280_pressure;Samples;Min_cycle;Max_cycle;Signal;HPM_P1;HPM_P2
2021/10/22 00:00:58;;;;;;;12.75;6.95;;;;;;;13.74;54.03;98635.94;1717196;82;20413;-61
2021/10/22 00:03:25;;;;;;;11.80;6.67;;;;;;;13.78;53.85;98636.08;1719435;82;22023;-61
2021/10/22 00:05:52;;;;;;;16.97;7.08;;;;;;;13.94;53.56;98641.11;1730965;82;20950;-61
2021/10/22 00:08:18;;;;;;;7.47;5.47;;;;;;;14.05;53.36;98637.17;1717787;82;21035;-61
2021/10/22 00:10:45;;;;;;;12.70;6.43;;;;;;;14.11;53.27;98630.60;1714932;82;21632;-62
2021/10/22 00:13:13;;;;;;;13.65;6.05;;;;;;;14.20;53.15;98631.25;1717071;82;21522;-60
2021/10/22 00:15:39;;;;;;;7.55;6.05;;;;;;;14.21;53.11;98635.11;1716242;82;21815;-61
2021/10/22 00:18:06;;;;;;;12.10;5.62;;;;;;;14.29;52.90;98626.60;1717274;82;21672;-61
2021/10/22 00:20:33;;;;;;;15.40;6.87;;;;;;;14.38;52.48;98624.59;1709158;80;21449;-61
2021/10/22 00:23:00;;;;;;;15.83;8.33;;;;;;;14.47;52.28;98628.86;1702736;82;21594;-61
2021/10/22 00:25:27;;;;;;;12.05;7.05;;;;;;;14.48;52.25;98623.42;1701893;82;21425;-61
2021/10/22 00:27:55;;;;;;;12.07;6.25;;;;;;;14.54;52.12;98624.77;1703883;83;21425;-61
2021/10/22 00:30:22;;;;;;;9.33;5.37;;;;;;;14.67;51.71;98622.08;1698388;82;21581;-61
2021/10/22 00:32:48;;;;;;;9.78;6.15;;;;;;;14.71;51.66;98625.71;1704775;83;21524;-61
2021/10/22 00:35:15;;;;;;;9.83;4.67;;;;;;;14.74;51.63;98612.72;1705750;82;21487;-60
2021/10/22 00:37:42;;;;;;;7.80;4.90;;;;;;;14.73;51.61;98611.88;1700766;82;21590;-61
2021/10/22 00:40:11;;;;;;;9.50;4.87;;;;;;;14.77;51.48;98611.17;1695101;82;21698;-60
2021/10/22 00:42:38;;;;;;;8.80;4.80;;;;;;;14.83;51.35;98612.50;1698486;82;21581;-60
2021/10/22 00:45:07;;;;;;;14.63;5.17;;;;;;;14.88;51.21;98607.68;1715959;82;21537;-61
2021/10/22 00:47:35;;;;;;;6.67;4.62;;;;;;;14.89;51.12;98604.09;1700708;82;21593;-60
2021/10/22 00:50:03;;;;;;;8.43;4.50;;;;;;;14.96;50.89;98605.30;1707119;83;23603;-60
2021/10/22 00:52:31;;;;;;;8.80;4.58;;;;;;;14.94;50.87;98608.06;1700212;83;21759;-61
2021/10/22 00:54:58;;;;;;;;;;;;;;;15.00;50.67;98610.72;1702116;82;21503;-60
2021/10/22 00:57:24;;;;;;;8.93;4.53;;;;;;;15.05;50.43;98609.89;1705891;82;20454;-60
2021/10/22 00:59:51;;;;;;;11.25;4.65;;;;;;;14.99;50.67;98613.86;1701325;83;21600;-60
2021/10/22 01:02:20;;;;;;;6.28;4.17;;;;;;;15.01;50.67;98608.91;1706051;82;21593;-60
2021/10/22 01:04:46;;;;;;;9.80;4.47;;;;;;;14.98;50.72;98611.32;1702240;82;21905;-60
2021/10/22 01:07:15;;;;;;;9.55;4.50;;;;;;;14.95;50.76;98617.67;1700588;83;21526;-60
2021/10/22 01:09:43;;;;;;;10.48;4.30;;;;;;;15.03;50.48;98615.78;1702824;82;21012;-60
2021/10/22 01:12:11;;;;;;;;;;;;;;;15.03;50.50;98626.38;1707535;82;21570;-60
2021/10/22 01:14:39;;;;;;;8.80;3.83;;;;;;;15.01;50.53;98632.73;1694592;82;20500;-60
2021/10/22 01:17:10;;;;;;;6.17;4.33;;;;;;;15.04;50.50;98635.15;1707522;83;21813;-60
2021/10/22 01:19:36;;;;;;;7.42;4.33;;;;;;;15.00;50.54;98637.19;1702275;82;20974;-60
2021/10/22 01:22:03;;;;;;;5.53;4.17;;;;;;;15.01;50.52;98638.02;1719118;82;21515;-61
2021/10/22 01:24:30;;;;;;;7.10;4.62;;;;;;;14.99;50.55;98639.45;1720826;82;21518;-61
2021/10/22 01:26:57;;;;;;;10.18;4.50;;;;;;;15.01;50.57;98647.28;1725473;82;21550;-60
2021/10/22 01:29:23;;;;;;;8.13;4.03;;;;;;;14.98;50.57;98646.56;1723207;82;22023;-61
2021/10/22 01:31:51;;;;;;;6.62;3.42;;;;;;;15.06;50.41;98653.08;1716109;82;21555;-60
2021/10/22 01:34:18;;;;;;;;;;;;;;;14.98;50.55;98655.83;1720447;82;21503;-60
2021/10/22 01:36:46;;;;;;;8.83;3.90;;;;;;;14.93;50.82;98661.11;1725456;82;20414;-61
2021/10/22 01:39:12;;;;;;;6.12;3.50;;;;;;;14.92;50.78;98666.89;1712199;82;20951;-60
2021/10/22 01:41:39;;;;;;;4.08;3.67;;;;;;;14.97;50.63;98670.50;1712551;82;21802;-61
2021/10/22 01:44:07;;;;;;;5.97;3.70;;;;;;;14.92;50.77;98676.64;1716323;82;21605;-62
2021/10/22 01:46:33;;;;;;;6.47;3.80;;;;;;;14.94;50.68;98675.55;1720027;82;21447;-61
2021/10/22 01:49:01;;;;;;;4.42;3.60;;;;;;;15.03;50.05;98679.31;1727076;82;21065;-61
2021/10/22 01:51:27;;;;;;;4.00;3.37;;;;;;;15.10;49.81;98679.19;1716142;82;21661;-61
2021/10/22 01:53:54;;;;;;;10.70;4.25;;;;;;;15.04;49.94;98674.36;1707018;82;21629;-61
2021/10/22 01:56:21;;;;;;;5.37;4.05;;;;;;;15.07;49.97;98683.86;1727643;82;21490;-62
2021/10/22 01:58:48;;;;;;;10.75;4.03;;;;;;;15.04;50.14;98691.57;1717954;82;21549;-62
2021/10/22 02:01:14;;;;;;;14.07;4.03;;;;;;;14.96;50.32;98691.33;1719146;82;21010;-62
2021/10/22 02:03:41;;;;;;;7.12;4.20;;;;;;;15.00;50.37;98690.13;1713068;82;21505;-61
2021/10/22 02:06:08;;;;;;;5.40;3.95;;;;;;;15.03;50.19;98695.20;1718332;82;22058;-62
2021/10/22 02:08:34;;;;;;;12.47;4.45;;;;;;;14.97;50.38;98693.00;1712603;82;21604;-62
2021/10/22 02:11:01;;;;;;;5.95;4.33;;;;;;;14.97;50.32;98698.29;1722905;82;21072;-64
2021/10/22 02:13:29;;;;;;;4.75;3.60;;;;;;;15.01;50.09;98692.28;1711909;82;21570;-62
2021/10/22 02:15:55;;;;;;;8.20;3.50;;;;;;;14.89;50.57;98707.30;1727740;82;21660;-63
2021/10/22 02:18:23;;;;;;;13.15;4.53;;;;;;;14.90;50.44;98702.35;1709492;82;21914;-63
2021/10/22 02:20:50;;;;;;;5.60;3.50;;;;;;;14.88;50.52;98709.56;1715617;82;21487;-63
2021/10/22 02:23:17;;;;;;;9.10;3.72;;;;;;;14.81;50.44;98714.98;1719261;81;21538;-63
2021/10/22 02:25:45;;;;;;;3.55;3.22;;;;;;;14.90;50.20;98711.16;1727358;82;21708;-63
2021/10/22 02:28:13;;;;;;;4.40;3.12;;;;;;;14.89;50.19;98718.72;1710363;82;21483;-62
2021/10/22 02:30:41;;;;;;;11.63;3.77;;;;;;;14.85;50.35;98715.95;1710836;82;21810;-61
2021/10/22 02:33:08;;;;;;;;;;;;;;;14.87;50.40;98721.97;1712567;81;21548;-62
2021/10/22 02:35:35;;;;;;;8.23;4.17;;;;;;;14.81;50.42;98717.14;1724403;82;20432;-60
2021/10/22 02:38:02;;;;;;;4.10;3.67;;;;;;;14.66;50.78;98719.13;1720326;81;21423;-60
2021/10/22 02:40:29;;;;;;;5.77;3.80;;;;;;;14.67;50.61;98732.70;1726231;82;21025;-60
2021/10/22 02:42:55;;;;;;;11.80;4.30;;;;;;;14.66;50.56;98733.67;1713368;82;22024;-60
2021/10/22 02:45:22;;;;;;;6.95;3.58;;;;;;;14.58;50.55;98736.89;1711861;82;21522;-60
2021/10/22 02:47:49;;;;;;;7.87;3.53;;;;;;;14.65;49.85;98739.91;1718315;82;21637;-61
2021/10/22 02:50:18;;;;;;;6.92;3.62;;;;;;;14.64;49.79;98741.38;1722178;82;21491;-62
2021/10/22 02:52:45;;;;;;;8.88;3.60;;;;;;;14.64;49.53;98746.17;1712740;82;21399;-60
2021/10/22 02:55:11;;;;;;;5.85;3.45;;;;;;;14.54;49.87;98748.63;1715570;82;22042;-61
2021/10/22 02:57:38;;;;;;;7.70;3.50;;;;;;;14.54;49.79;98751.27;1711212;82;21416;-61
2021/10/22 03:00:06;;;;;;;8.40;3.58;;;;;;;14.55;49.68;98759.56;1719166;82;21018;-60
2021/10/22 03:02:34;;;;;;;4.62;3.45;;;;;;;14.53;49.69;98764.61;1714856;82;21574;-61
2021/10/22 03:05:01;;;;;;;4.03;3.37;;;;;;;14.41;50.14;98763.22;1718734;82;21040;-60
2021/10/22 03:07:28;;;;;;;7.45;3.40;;;;;;;14.41;50.25;98768.51;1713949;82;21857;-62
2021/10/22 03:09:54;;;;;;;4.60;3.75;;;;;;;14.33;50.54;98774.81;1721603;82;21108;-61
2021/10/22 03:12:21;;;;;;;4.30;3.12;;;;;;;14.23;50.85;98775.12;1715343;82;21531;-61
2021/10/22 03:14:47;;;;;;;6.87;3.58;;;;;;;14.11;51.16;98778.62;1720437;82;21633;-61
2021/10/22 03:17:14;;;;;;;6.50;3.75;;;;;;;14.14;51.09;98781.06;1703874;82;21415;-61
2021/10/22 03:19:40;;;;;;;9.05;3.75;;;;;;;14.09;51.18;98781.85;1721644;82;22031;-61
2021/10/22 03:22:07;;;;;;;5.92;3.10;;;;;;;14.08;51.01;98784.14;1714422;82;21581;-61
2021/10/22 03:24:33;;;;;;;10.93;3.30;;;;;;;14.02;51.14;98782.30;1713990;82;21518;-60
2021/10/22 03:27:03;;;;;;;3.12;2.75;;;;;;;13.92;51.24;98775.98;1718509;82;21613;-60
2021/10/22 03:29:30;;;;;;;5.42;3.30;;;;;;;13.89;51.27;98781.47;1717378;82;21724;-60
2021/10/22 03:34:42;;;;;;;8.43;3.10;;;;;;;13.89;51.07;98792.05;1794306;78;23214;-60
2021/10/22 03:37:12;;;;;;;7.35;3.47;;;;;;;13.74;51.42;98793.12;1766357;80;21526;-60
2021/10/22 03:39:40;;;;;;;7.20;3.50;;;;;;;13.72;51.60;98793.70;1756899;80;21749;-60
2021/10/22 03:42:07;;;;;;;10.00;3.10;;;;;;;13.60;51.84;98791.44;1761556;80;21684;-60
2021/10/22 03:44:34;;;;;;;8.10;3.55;;;;;;;13.56;52.02;98798.72;1756994;80;21034;-60
2021/10/22 03:47:00;;;;;;;6.25;3.17;;;;;;;13.46;52.21;98799.45;1763040;80;21464;-59
2021/10/22 03:49:27;;;;;;;5.10;3.52;;;;;;;13.41;52.41;98803.70;1757420;80;21462;-60
2021/10/22 03:51:53;;;;;;;5.28;3.40;;;;;;;13.36;52.51;98810.63;1767400;80;21838;-60
2021/10/22 03:54:20;;;;;;;9.20;3.65;;;;;;;13.29;52.76;98810.63;1767678;80;21669;-61
2021/10/22 03:56:47;;;;;;;7.17;3.55;;;;;;;13.25;52.82;98805.20;1757980;79;21443;-60
2021/10/22 03:59:16;;;;;;;4.62;3.62;;;;;;;13.28;52.88;98814.69;1753062;80;21006;-60
2021/10/22 04:01:45;;;;;;;6.08;3.85;;;;;;;13.24;52.91;98817.55;1770542;80;21595;-60
2021/10/22 04:04:12;;;;;;;9.53;3.62;;;;;;;13.23;53.02;98817.17;1768403;80;22125;-60
2021/10/22 04:06:39;;;;;;;4.40;3.55;;;;;;;13.24;52.99;98821.52;1760906;80;25648;-60
2021/10/22 04:09:07;;;;;;;7.67;3.30;;;;;;;13.18;53.07;98829.82;1767190;79;21537;-60
2021/10/22 04:11:36;;;;;;;7.65;3.40;;;;;;;13.15;53.15;98836.64;1757726;80;21605;-59
2021/10/22 04:14:04;;;;;;;6.25;3.47;;;;;;;13.16;53.18;98832.20;1763640;80;21570;-60
2021/10/22 04:16:31;;;;;;;5.50;3.25;;;;;;;13.09;53.34;98836.19;1756891;80;21792;-60
2021/10/22 04:18:58;;;;;;;7.62;3.85;;;;;;;13.03;53.57;98834.34;1748879;80;21444;-60
2021/10/22 04:21:25;;;;;;;6.10;3.33;;;;;;;12.99;53.74;98839.91;1765033;80;21495;-59
2021/10/22 04:23:51;;;;;;;4.60;3.40;;;;;;;12.97;53.94;98839.17;1755787;80;20990;-59
2021/10/22 04:26:18;;;;;;;7.50;3.55;;;;;;;12.91;54.33;98847.48;1770166;80;21475;-59
2021/10/22 04:28:44;;;;;;;8.60;3.55;;;;;;;12.88;54.42;98852.47;1760147;80;21780;-60
2021/10/22 04:31:11;;;;;;;8.55;4.03;;;;;;;12.82;54.60;98847.12;1759015;80;21629;-59
2021/10/22 04:33:39;;;;;;;7.75;3.37;;;;;;;12.80;54.80;98852.13;1767550;80;21644;-59
2021/10/22 04:36:08;;;;;;;7.10;3.58;;;;;;;12.74;54.98;98859.97;1764567;80;21100;-60
2021/10/22 04:41:20;;;;;;;8.63;3.92;;;;;;;12.66;55.36;98866.22;1757321;80;21832;-60
2021/10/22 04:43:50;;;;;;;8.48;3.77;;;;;;;12.56;55.54;98866.41;1753540;80;21471;-59
2021/10/22 04:46:18;;;;;;;4.62;3.90;;;;;;;12.48;55.77;98872.17;1763257;80;21471;-59
2021/10/22 04:48:45;;;;;;;10.38;4.22;;;;;;;12.50;56.09;98885.27;1749346;80;21566;-59
2021/10/22 04:51:13;;;;;;;5.33;4.08;;;;;;;12.46;56.00;98882.80;1762502;80;21410;-59
2021/10/22 04:53:40;;;;;;;7.08;3.40;;;;;;;12.38;56.32;98886.88;1755963;80;21570;-58
2021/10/22 04:56:06;;;;;;;10.82;4.15;;;;;;;12.39;56.07;98890.72;1751514;80;21675;-59
2021/10/22 04:58:35;;;;;;;6.78;3.60;;;;;;;12.39;55.87;98895.98;1752629;80;21496;-59
2021/10/22 05:01:02;;;;;;;6.92;3.58;;;;;;;12.45;55.36;98904.86;1754201;80;21474;-59
2021/10/22 05:03:29;;;;;;;3.30;3.00;;;;;;;12.38;54.93;98901.38;1760625;80;21593;-59
2021/10/22 05:05:56;;;;;;;10.03;2.80;;;;;;;12.40;54.61;98910.87;1755942;80;22029;-59
2021/10/22 05:08:23;;;;;;;4.67;2.95;;;;;;;12.36;54.27;98915.13;1762499;80;21574;-59
2021/10/22 05:10:50;;;;;;;7.42;3.12;;;;;;;12.33;54.29;98912.67;1758325;80;21480;-59
2021/10/22 05:13:17;;;;;;;7.08;2.67;;;;;;;12.35;54.00;98917.38;1760162;80;21403;-63
2021/10/22 05:15:44;;;;;;;7.92;2.80;;;;;;;12.39;53.78;98922.83;1761213;80;21549;-60
2021/10/22 05:18:10;;;;;;;6.10;2.45;;;;;;;12.28;53.97;98924.80;1748562;80;21910;-60
2021/10/22 05:20:37;;;;;;;5.15;2.83;;;;;;;12.21;54.24;98930.09;1756594;80;21628;-60
2021/10/22 05:23:04;;;;;;;6.67;2.93;;;;;;;12.17;54.26;98930.75;1747850;80;21044;-60
2021/10/22 05:25:32;;;;;;;5.50;2.83;;;;;;;12.11;54.45;98923.67;1742033;80;21495;-60
2021/10/22 05:27:58;;;;;;;7.67;2.73;;;;;;;12.12;54.54;98927.53;1768602;79;21002;-61
2021/10/22 05:30:26;;;;;;;6.30;3.47;;;;;;;12.08;54.87;98930.83;1763187;80;22119;-60
2021/10/22 05:32:53;;;;;;;10.80;3.77;;;;;;;12.21;54.96;98943.27;1750361;80;21590;-60
2021/10/22 05:35:19;;;;;;;7.37;3.40;;;;;;;12.16;55.18;98948.80;1740060;80;21508;-60
2021/10/22 05:37:46;;;;;;;8.07;4.10;;;;;;;12.13;55.53;98951.64;1757401;80;21534;-61
2021/10/22 05:40:13;;;;;;;8.08;3.87;;;;;;;12.23;55.72;98946.66;1742924;80;21526;-60
2021/10/22 05:42:40;;;;;;;9.63;4.10;;;;;;;12.20;55.86;98954.26;1750186;80;21826;-60
2021/10/22 05:45:08;;;;;;;9.63;3.97;;;;;;;12.22;55.97;98960.77;1748428;80;22617;-59
2021/10/22 05:47:37;;;;;;;7.62;4.05;;;;;;;12.26;56.07;98957.87;1753308;80;20983;-59
2021/10/22 05:50:05;;;;;;;7.92;3.70;;;;;;;12.32;56.02;98959.28;1757940;80;21629;-60
2021/10/22 05:52:32;;;;;;;;;;;;;;;12.33;56.04;98959.64;1758138;80;21637;-55
2021/10/22 05:54:58;;;;;;;6.50;3.50;;;;;;;12.38;56.13;98973.88;1751173;80;22051;-56
2021/10/22 05:57:25;;;;;;;9.70;3.77;;;;;;;12.42;55.77;98974.06;1741433;80;21542;-57
2021/10/22 05:59:52;;;;;;;4.47;3.90;;;;;;;12.47;55.76;98973.32;1745626;80;21527;-58
2021/10/22 06:02:18;;;;;;;8.98;3.15;;;;;;;12.49;55.63;98972.75;1742467;80;21413;-58
2021/10/22 06:04:45;;;;;;;7.25;3.02;;;;;;;12.58;55.45;98977.91;1751270;80;21498;-57
2021/10/22 06:07:12;;;;;;;5.55;3.17;;;;;;;12.72;54.72;98983.19;1750008;80;21796;-56
2021/10/22 06:09:39;;;;;;;13.32;3.52;;;;;;;12.81;54.43;98979.14;1740415;80;21171;-58
2021/10/22 06:12:07;;;;;;;11.90;3.55;;;;;;;12.90;54.24;98975.06;1747447;79;20983;-58
2021/10/22 06:14:34;;;;;;;5.08;3.35;;;;;;;13.00;53.74;98969.11;1755435;80;21593;-57
2021/10/22 06:17:02;;;;;;;10.70;3.65;;;;;;;13.19;53.66;98973.22;1746263;80;21535;-56
2021/10/22 06:19:35;;;;;;;9.08;3.98;;;;;;;13.19;54.08;98969.27;1746690;80;21443;-58
2021/10/22 06:24:33;;;;;;;10.70;4.90;;;;;;;13.30;53.84;98977.79;1750242;80;21428;-58
2021/10/22 06:26:59;;;;;;;7.65;3.65;;;;;;;13.42;53.02;98979.68;1751099;80;21532;-59
2021/10/22 06:29:26;;;;;;;11.88;4.00;;;;;;;13.42;53.15;98978.36;1748718;80;21514;-59
2021/10/22 06:31:53;;;;;;;7.60;3.90;;;;;;;13.43;52.99;98980.07;1739816;79;21780;-60
2021/10/22 06:34:23;;;;;;;8.80;3.40;;;;;;;13.46;52.39;98986.94;1753239;79;21472;-60
2021/10/22 06:36:48;;;;;;;6.05;2.62;;;;;;;13.47;51.53;98989.48;1743304;79;21046;-59
2021/10/22 06:39:15;;;;;;;6.08;2.95;;;;;;;13.49;50.63;98994.67;1745643;79;21533;-59
2021/10/22 06:41:43;;;;;;;6.40;2.75;;;;;;;13.51;49.90;98998.05;1743710;80;21624;-59
2021/10/22 06:44:17;;;;;;;6.72;2.95;;;;;;;13.49;50.00;98998.62;1723321;82;21929;-59
2021/10/22 06:46:45;;;;;;;5.50;2.27;;;;;;;13.51;49.99;99001.53;1743575;79;21505;-59
2021/10/22 06:49:13;;;;;;;12.50;2.55;;;;;;;13.61;49.97;99001.77;1743612;79;21613;-60
2021/10/22 06:51:39;;;;;;;9.85;2.83;;;;;;;13.69;50.07;98994.18;1751774;79;21570;-59
2021/10/22 06:54:07;;;;;;;8.15;3.40;;;;;;;13.75;50.26;98996.44;1742946;80;21499;-60
2021/10/22 06:56:35;;;;;;;9.28;4.08;;;;;;;13.86;50.28;98995.70;1749570;79;21495;-60
2021/10/22 06:59:02;;;;;;;7.65;3.80;;;;;;;14.01;50.34;98996.48;1745656;79;28130;-64
2021/10/22 07:01:29;;;;;;;6.37;3.90;;;;;;;14.05;50.74;98990.52;1746954;79;21491;-62
2021/10/22 07:03:56;;;;;;;6.10;4.10;;;;;;;14.05;50.99;99000.60;1745173;79;21506;-61
2021/10/22 07:09:08;;;;;;;5.78;4.10;;;;;;;14.14;51.07;98996.50;1744284;79;22036;-60
2021/10/22 07:11:37;;;;;;;13.43;4.65;;;;;;;14.18;50.93;99003.27;1746226;80;21482;-60
2021/10/22 07:14:07;;;;;;;6.90;4.67;;;;;;;14.30;50.26;98998.48;1743878;79;21478;-60
2021/10/22 07:16:33;;;;;;;7.50;4.15;;;;;;;14.31;50.68;98992.22;1748857;79;21049;-61
2021/10/22 07:19:00;;;;;;;10.78;3.95;;;;;;;14.44;49.99;98998.84;1744002;79;21523;-65
2021/10/22 07:21:27;;;;;;;12.80;3.70;;;;;;;14.49;50.16;99004.67;1742904;79;21757;-61
2021/10/22 07:23:56;;;;;;;6.65;3.80;;;;;;;14.58;49.23;99006.72;1744864;79;21010;-61
2021/10/22 07:26:22;;;;;;;6.33;2.95;;;;;;;14.63;48.57;98997.61;1746407;79;21524;-60
2021/10/22 07:28:49;;;;;;;8.78;3.00;;;;;;;14.77;47.42;99004.11;1746748;79;21543;-61
2021/10/22 07:31:16;;;;;;;3.58;2.33;;;;;;;14.94;45.32;99005.56;1739250;79;21700;-60
2021/10/22 07:33:43;;;;;;;9.63;2.65;;;;;;;14.97;44.22;99001.36;1748682;80;22075;-60
2021/10/22 07:36:12;;;;;;;5.47;2.52;;;;;;;14.98;44.56;98999.09;1759080;80;21497;-60
2021/10/22 07:38:42;;;;;;;8.88;2.70;;;;;;;15.08;44.66;99003.25;1758675;79;20985;-61
2021/10/22 07:41:09;;;;;;;5.47;2.90;;;;;;;15.12;43.48;98998.09;1752213;79;21503;-61
2021/10/22 07:43:37;;;;;;;5.37;2.33;;;;;;;15.08;43.14;99016.00;1754840;79;21610;-60
2021/10/22 07:46:04;;;;;;;5.28;2.10;;;;;;;15.09;42.89;99016.88;1730952;82;21805;-61
2021/10/22 07:48:31;;;;;;;5.20;2.20;;;;;;;15.10;43.07;99019.38;1726028;82;21572;-60
2021/10/22 07:50:58;;;;;;;4.60;2.00;;;;;;;15.09;43.16;99008.92;1727081;82;21534;-60
2021/10/22 07:53:24;;;;;;;6.42;2.92;;;;;;;15.21;42.18;99015.97;1729006;81;21476;-60
2021/10/22 07:55:53;;;;;;;8.25;2.27;;;;;;;15.19;42.04;99004.16;1763830;79;21432;-59
2021/10/22 07:58:20;;;;;;;3.72;1.98;;;;;;;15.30;41.85;99019.29;1759593;80;21831;-61
2021/10/22 08:00:46;;;;;;;7.60;3.02;;;;;;;15.32;41.15;99018.70;1754848;80;21486;-59
2021/10/22 08:03:13;;;;;;;6.50;1.80;;;;;;;15.36;40.96;99019.32;1757391;80;21533;-60
2021/10/22 08:05:40;;;;;;;6.58;1.90;;;;;;;15.55;39.43;99022.31;1761487;80;21487;-60
2021/10/22 08:08:07;;;;;;;4.97;1.90;;;;;;;15.55;38.87;99029.42;1760404;80;21497;-59
2021/10/22 08:10:33;;;;;;;10.87;1.57;;;;;;;15.63;37.93;99011.63;1749956;80;21802;-59
2021/10/22 08:13:01;;;;;;;6.67;1.50;;;;;;;15.64;37.54;99022.61;1756614;80;21554;-59
2021/10/22 08:15:29;;;;;;;7.15;1.90;;;;;;;15.64;38.08;99018.16;1760323;80;21459;-59
2021/10/22 08:17:55;;;;;;;;;;;;;;;15.69;37.47;99031.91;1759890;80;21495;-59
2021/10/22 08:20:24;;;;;;;12.80;2.20;;;;;;;15.60;37.55;99033.08;1753149;80;20425;-60
2021/10/22 08:22:52;;;;;;;2.90;1.60;;;;;;;15.62;37.85;99025.86;1761802;80;22177;-60
2021/10/22 08:25:21;;;;;;;;;;;;;;;15.63;37.17;99021.74;1769820;80;21242;-59
2021/10/22 08:27:49;;;;;;;13.65;1.90;;;;;;;15.54;37.44;99024.61;1757631;80;20451;-59
2021/10/22 08:30:21;;;;;;;6.08;1.65;;;;;;;15.52;37.31;99034.48;1754935;80;21529;-67
2021/10/22 08:32:51;;;;;;;8.83;1.50;;;;;;;15.48;37.29;99033.47;1760357;80;21049;-59
2021/10/22 08:35:20;;;;;;;5.22;1.47;;;;;;;15.44;36.91;99037.30;1763508;80;22016;-61
2021/10/22 08:37:49;;;;;;;2.65;1.55;;;;;;;15.49;37.38;99029.39;1748873;80;21014;-59
2021/10/22 08:40:16;;;;;;;4.08;1.90;;;;;;;15.49;37.50;99037.83;1748105;80;21510;-60
2021/10/22 08:42:47;;;;;;;11.08;1.75;;;;;;;15.52;37.41;99029.17;1752540;80;21495;-60
2021/10/22 08:45:14;;;;;;;8.43;1.80;;;;;;;15.66;36.98;99039.24;1745585;80;21581;-58
2021/10/22 08:47:41;;;;;;;12.28;1.62;;;;;;;15.71;36.66;99043.73;1758185;80;21782;-58
2021/10/22 08:50:11;;;;;;;4.65;1.60;;;;;;;15.68;36.65;99050.58;1750790;80;21585;-60
2021/10/22 08:52:40;;;;;;;4.47;1.52;;;;;;;15.72;36.39;99057.33;1752429;80;21486;-60
2021/10/22 08:55:09;;;;;;;2.10;1.50;;;;;;;15.67;36.87;99052.84;1752309;80;20990;-59
2021/10/22 08:57:42;;;;;;;11.48;1.50;;;;;;;15.76;36.46;99045.12;1749273;80;21482;-59
2021/10/22 09:00:15;;;;;;;7.62;1.52;;;;;;;15.83;36.34;99039.36;1754481;80;21533;-61
2021/10/22 09:02:44;;;;;;;2.22;1.35;;;;;;;15.87;36.11;99054.91;1741712;80;21577;-61
2021/10/22 09:05:17;;;;;;;4.25;1.60;;;;;;;15.79;35.72;99049.34;1754442;79;20951;-61
2021/10/22 09:07:48;;;;;;;6.08;1.92;;;;;;;15.71;36.47;99043.73;1757833;80;21542;-61
2021/10/22 09:10:27;;;;;;;10.78;1.50;;;;;;;15.85;36.64;99047.55;1763439;80;21506;-60
2021/10/22 09:13:01;;;;;;;3.65;1.80;;;;;;;16.00;36.03;99054.84;1753099;80;21812;-62
2021/10/22 09:15:36;;;;;;;5.42;1.65;;;;;;;15.95;36.38;99060.51;1753357;80;21414;-60
2021/10/22 09:18:18;;;;;;;7.05;1.65;;;;;;;15.92;36.68;99046.63;1754087;80;21545;-59
2021/10/22 09:21:00;;;;;;;3.77;1.72;;;;;;;16.11;36.34;99056.22;1761411;80;21510;-58
2021/10/22 09:23:33;;;;;;;7.25;1.75;;;;;;;16.14;36.54;99049.37;1752628;80;21049;-61
2021/10/22 09:26:17;;;;;;;4.78;1.55;;;;;;;16.22;36.19;99052.77;1757436;80;21671;-60
2021/10/22 09:28:45;;;;;;;6.92;2.42;;;;;;;16.26;35.87;99031.67;1751476;80;21589;-60
2021/10/22 09:31:19;;;;;;;3.08;2.05;;;;;;;17.00;35.29;99061.83;1742062;80;21592;-59
2021/10/22 09:33:56;;;;;;;5.70;1.65;;;;;;;16.84;35.01;99050.72;1757343;80;21226;-59
2021/10/22 09:36:38;;;;;;;3.52;1.80;;;;;;;16.64;35.47;99063.70;1754740;80;21695;-60
2021/10/22 09:39:08;;;;;;;9.13;2.00;;;;;;;16.61;35.64;99045.84;1746978;80;21778;-59
2021/10/22 09:41:39;;;;;;;7.55;1.70;;;;;;;16.74;35.73;99055.87;1754219;80;20942;-60
2021/10/22 09:44:33;;;;;;;6.50;1.62;;;;;;;16.86;36.12;99050.14;1759840;80;20998;-61
2021/10/22 09:47:11;;;;;;;7.12;2.10;;;;;;;17.11;34.91;99051.70;1746056;80;21500;-60
2021/10/22 09:49:45;;;;;;;5.90;1.70;;;;;;;17.21;34.81;99044.67;1746920;80;21596;-60
2021/10/22 09:52:27;;;;;;;8.20;2.08;;;;;;;17.27;34.55;99052.63;1750054;80;21721;-60
2021/10/22 09:55:07;;;;;;;10.85;2.15;;;;;;;17.32;34.46;99040.67;1751050;80;21014;-61
2021/10/22 09:57:38;;;;;;;6.17;2.10;;;;;;;17.37;34.07;99044.30;1745603;80;21566;-61
2021/10/22 10:00:08;;;;;;;6.37;1.65;;;;;;;17.21;34.38;99061.10;1750314;80;21001;-60
2021/10/22 10:02:36;;;;;;;7.80;1.65;;;;;;;17.12;34.42;99067.52;1749802;80;21499;-61
2021/10/22 10:05:06;;;;;;;7.78;1.60;;;;;;;17.15;34.85;99066.91;1755042;80;24039;-60
2021/10/22 10:07:40;;;;;;;8.05;1.50;;;;;;;17.32;34.03;99075.70;1761621;80;21450;-61
2021/10/22 10:10:08;;;;;;;7.42;2.17;;;;;;;17.20;34.31;99070.89;1750526;80;21546;-63
2021/10/22 10:12:40;;;;;;;7.03;1.90;;;;;;;17.06;34.83;99055.19;1742736;80;21531;-64
2021/10/22 10:15:10;;;;;;;9.15;1.92;;;;;;;17.16;34.42;99072.56;1759772;80;21478;-65
2021/10/22 10:17:48;;;;;;;4.53;1.60;;;;;;;16.99;34.91;99064.14;1747952;79;21804;-66
2021/10/22 10:20:23;;;;;;;4.40;1.57;;;;;;;17.09;35.02;99063.77;1765688;80;21494;-67
2021/10/22 10:22:51;;;;;;;5.67;1.50;;;;;;;17.14;34.91;99054.13;1758708;79;21494;-65
2021/10/22 10:25:22;;;;;;;5.72;2.00;;;;;;;17.21;34.90;99057.12;1757488;80;21566;-66
2021/10/22 10:27:55;;;;;;;6.22;1.62;;;;;;;17.31;34.63;99060.75;1757781;79;21069;-64
2021/10/22 10:30:39;;;;;;;9.75;1.92;;;;;;;17.45;34.54;99064.45;1754623;79;21672;-63
2021/10/22 10:33:10;;;;;;;4.97;1.57;;;;;;;17.61;33.54;99076.50;1758461;80;20954;-63
2021/10/22 10:35:42;;;;;;;6.15;1.67;;;;;;;17.41;33.96;99068.33;1742943;80;21444;-64
2021/10/22 10:38:12;;;;;;;5.47;1.45;;;;;;;17.40;33.88;99067.95;1753921;80;21480;-64
2021/10/22 10:40:38;;;;;;;5.35;1.57;;;;;;;17.36;33.86;99063.02;1750980;79;21458;-63
2021/10/22 10:43:23;;;;;;;12.47;1.95;;;;;;;17.35;33.97;99083.91;1756994;79;21727;-64
2021/10/22 10:45:50;;;;;;;3.72;1.55;;;;;;;17.37;33.43;99075.36;1720398;81;21493;-63
2021/10/22 10:48:18;;;;;;;7.92;1.80;;;;;;;17.39;33.64;99070.27;1756718;80;21567;-63
2021/10/22 10:51:04;;;;;;;5.55;2.00;;;;;;;17.43;33.72;99074.36;1764196;80;21507;-61
2021/10/22 10:53:38;;;;;;;7.47;1.60;;;;;;;17.62;33.82;99072.39;1749816;79;21107;-62
2021/10/22 10:56:21;;;;;;;4.47;2.27;;;;;;;17.71;33.15;99058.84;1748193;80;21740;-62
2021/10/22 10:58:48;;;;;;;2.67;1.55;;;;;;;17.91;32.75;99070.52;1758375;80;21001;-64
2021/10/22 11:01:32;;;;;;;8.30;1.82;;;;;;;17.99;32.48;99078.73;1753022;80;21594;-61
2021/10/22 11:04:00;;;;;;;7.08;1.70;;;;;;;17.94;32.65;99080.08;1755330;80;21519;-62
2021/10/22 11:06:47;;;;;;;8.68;2.92;;;;;;;17.83;33.24;99065.80;1759895;80;21586;-62
2021/10/22 11:09:28;;;;;;;7.22;1.77;;;;;;;17.81;31.95;99053.12;1758299;79;21815;-62
2021/10/22 11:12:01;;;;;;;5.45;1.42;;;;;;;17.82;32.82;99068.58;1751485;80;21502;-65
2021/10/22 11:14:41;;;;;;;3.83;1.40;;;;;;;18.02;32.04;99071.81;1754522;79;21538;-66
2021/10/22 11:17:10;;;;;;;4.60;1.60;;;;;;;17.93;31.88;99072.56;1731338;81;21064;-60
2021/10/22 11:19:40;;;;;;;9.60;2.17;;;;;;;17.83;32.58;99068.46;1762629;79;21424;-60
2021/10/22 11:22:12;;;;;;;8.10;2.30;;;;;;;17.87;32.52;99063.27;1762908;80;21783;-60
2021/10/22 11:24:40;;;;;;;8.35;2.15;;;;;;;17.98;32.14;99069.05;1746638;80;21590;-61
2021/10/22 11:27:14;;;;;;;5.70;2.00;;;;;;;17.93;31.92;99074.39;1758905;79;21017;-61
2021/10/22 11:29:46;;;;;;;9.15;2.15;;;;;;;17.82;32.32;99065.92;1744646;80;21570;-61
2021/10/22 11:32:15;;;;;;;11.35;2.02;;;;;;;17.73;32.24;99072.86;1754895;80;21609;-61
2021/10/22 11:34:58;;;;;;;6.70;1.82;;;;;;;17.63;32.59;99065.25;1762138;80;21750;-61
2021/10/22 11:37:35;;;;;;;6.75;2.33;;;;;;;17.66;32.61;99072.50;1762204;80;21578;-62
2021/10/22 11:40:05;;;;;;;6.42;2.27;;;;;;;17.70;32.52;99072.59;1754266;80;21443;-61
2021/10/22 11:42:35;;;;;;;5.58;2.60;;;;;;;17.75;32.26;99082.04;1753251;79;21482;-61
2021/10/22 11:45:12;;;;;;;11.15;2.15;;;;;;;17.96;31.90;99072.81;1752376;80;21405;-61
2021/10/22 11:47:50;;;;;;;8.75;2.33;;;;;;;18.03;32.06;99081.48;1757492;80;21751;-61
2021/10/22 11:50:32;;;;;;;7.30;2.12;;;;;;;18.14;32.38;99081.07;1765911;80;21537;-59
2021/10/22 11:53:11;;;;;;;6.87;2.00;;;;;;;18.40;31.70;99070.91;1753607;80;21506;-61